Time;durP1;ratioP1;P1;durP2;ratioP2;P2;SDS_P1;SDS_P2;PMS_P1;PMS_P2;Temp;Humidity;BMP_temperature;BMP_pressure;BME280_temperature;BME280_humidity;BME280_pressure;Samples;Min_cycle;Max_cycle;Signal;HPM_P1;HPM_P2
2021/08/01 00:00:58;;;;;;;;;;;;;;;28.68;43.55;100287.88;5117881;28;806;-43
2021/08/01 00:03:23;;;;;;;;;;;;;;;28.78;43.58;100302.91;5117814;28;1965;-45
2021/08/01 00:05:49;;;;;;;;;;;;;;;28.81;43.38;100297.91;5118144;28;755;-45
2021/08/01 00:08:14;;;;;;;;;;;;;;;28.94;43.24;100293.56;5118109;28;885;-44
2021/08/01 00:10:39;;;;;;;;;;;;;;;28.99;42.93;100292.97;5117841;28;755;-33
2021/08/01 00:13:05;;;;;;;;;;;;;;;29.08;43.07;100291.69;5117248;28;1004;-47
2021/08/01 00:15:30;;;;;;;;;;;;;;;29.07;43.04;100298.16;5117893;28;758;-45
2021/08/01 00:17:55;;;;;;;;;;;;;;;29.16;42.88;100304.22;5117538;28;796;-33
2021/08/01 00:20:21;;;;;;;;;;;;;;;29.08;43.21;100303.38;5117749;28;799;-37
2021/08/01 00:22:46;;;;;;;;;;;;;;;29.20;43.02;100300.03;5117434;28;1906;-35
2021/08/01 00:25:11;;;;;;;;;;;;;;;29.18;43.12;100302.97;5117667;28;799;-33
2021/08/01 00:27:36;;;;;;;;;;;;;;;29.21;42.72;100305.25;5117200;28;1131;-34
2021/08/01 00:30:09;;;;;;;;;;;;;;;29.25;42.89;100313.81;5117317;28;770;-33
2021/08/01 00:32:34;;;;;;;;;;;;;;;29.34;42.70;100314.44;5116840;28;858;-33
2021/08/01 00:35:00;;;;;;;;;;;;;;;29.36;42.72;100316.94;5117537;28;778;-41
2021/08/01 00:37:25;;;;;;;;;;;;;;;29.27;43.10;100313.59;5117566;28;736;-34
2021/08/01 00:39:53;;;;;;;;;;;;;;;29.33;42.91;100319.00;5117089;28;492;-33
2021/08/01 00:42:19;;;;;;;;;;;;;;;29.45;42.71;100323.78;5116463;28;1953;-41
2021/08/01 00:44:44;;;;;;;;;;;;;;;29.41;42.71;100327.97;5117212;28;1049;-34
2021/08/01 00:47:10;;;;;;;;;;;;;;;29.46;42.85;100329.00;5117217;28;850;-41
2021/08/01 00:49:35;;;;;;;;;;;;;;;29.39;42.85;100317.34;5117245;28;803;-34
2021/08/01 00:52:00;;;;;;;;;;;;;;;29.41;43.02;100328.78;5117036;28;815;-42
2021/08/01 00:54:25;;;;;;;;;;;;;;;29.38;42.95;100342.75;5108629;28;1122;-34
2021/08/01 00:56:51;;;;;;;;;;;;;;;29.33;43.25;100340.69;5096351;28;994;-41
2021/08/01 00:59:16;;;;;;;;;;;;;;;29.54;42.81;100336.09;5096787;28;941;-33
2021/08/01 01:01:43;;;;;;;;;;;;;;;29.52;42.74;100332.75;5078640;28;747;-35
2021/08/01 01:04:09;;;;;;;;;;;;;;;29.55;42.84;100320.66;5079123;28;1934;-41
2021/08/01 01:06:46;;;;;;;;;;;;;;;29.55;42.63;100316.09;5096335;28;981;-34
2021/08/01 01:09:18;;;;;;;;;;;;;;;29.56;42.79;100319.63;5078661;28;874;-41
2021/08/01 01:11:43;;;;;;;;;;;;;;;29.58;42.71;100326.50;5096131;28;954;-33
2021/08/01 01:14:10;;;;;;;;;;;;;;;29.59;42.66;100327.38;5096614;28;834;-41
2021/08/01 01:16:37;;;;;;;;;;;;;;;29.69;42.40;100326.94;5078504;28;829;-33
2021/08/01 01:19:02;;;;;;;;;;;;;;;29.65;42.67;100321.09;5078698;28;751;-34
2021/08/01 01:21:46;;;;;;;;;;;;;;;29.66;42.62;100319.22;5078224;28;814;-33
2021/08/01 01:24:18;;;;;;;;;;;;;;;29.66;42.56;100317.34;5096534;28;1961;-40
2021/08/01 01:26:49;;;;;;;;;;;;;;;29.67;42.62;100312.75;5096207;28;1006;-40
2021/08/01 01:29:22;;;;;;;;;;;;;;;29.74;42.38;100319.00;5078525;28;818;-38
2021/08/01 01:31:47;;;;;;;;;;;;;;;29.73;42.49;100311.09;5078898;28;830;-40
2021/08/01 01:34:31;;;;;;;;;;;;;;;29.81;42.23;100294.59;5095599;28;1531;-40
2021/08/01 01:36:56;;;;;;;;;;;;;;;29.72;42.44;100287.72;5096853;28;810;-39
2021/08/01 01:39:21;;;;;;;;;;;;;;;29.80;42.35;100290.19;5078323;28;1452;-40
2021/08/01 01:41:47;;;;;;;;;;;;;;;29.71;42.82;100286.91;5095852;28;915;-40
2021/08/01 01:44:12;;;;;;;;;;;;;;;29.80;42.68;100291.03;5096234;28;1906;-40
2021/08/01 01:46:37;;;;;;;;;;;;;;;29.86;42.18;100302.94;5100036;28;987;-40
2021/08/01 01:49:06;;;;;;;;;;;;;;;29.78;42.63;100297.75;5099720;28;779;-40
2021/08/01 01:51:31;;;;;;;;;;;;;;;29.87;42.26;100306.44;5082176;28;764;-40
2021/08/01 01:53:57;;;;;;;;;;;;;;;29.88;42.45;100302.72;5099941;28;1218;-39
2021/08/01 01:56:22;;;;;;;;;;;;;;;29.87;42.50;100306.44;5081383;28;1018;-41
2021/08/01 01:58:47;;;;;;;;;;;;;;;29.91;42.20;100296.88;5082062;28;740;-40
2021/08/01 02:01:13;;;;;;;;;;;;;;;29.81;42.56;100292.69;5081640;28;817;-43
2021/08/01 02:03:38;;;;;;;;;;;;;;;29.76;43.27;100297.09;5099561;28;1909;-37
2021/08/01 02:06:03;;;;;;;;;;;;;;;29.82;43.62;100302.53;5099939;28;525;-34
2021/08/01 02:08:32;;;;;;;;;;;;;;;29.77;43.92;100305.03;5099987;28;839;-42
2021/08/01 02:10:58;;;;;;;;;;;;;;;29.86;43.89;100299.38;5099074;28;959;-34
2021/08/01 02:13:25;;;;;;;;;;;;;;;29.80;43.80;100303.75;5061314;28;943;-33
2021/08/01 02:15:51;;;;;;;;;;;;;;;29.86;43.73;100311.06;5079532;28;730;-45
2021/08/01 02:18:40;;;;;;;;;;;;;;;29.77;44.20;100302.31;5069117;28;1238;-33
2021/08/01 02:21:05;;;;;;;;;;;;;;;29.78;44.37;100297.75;5086203;28;1165;-45
2021/08/01 02:23:32;;;;;;;;;;;;;;;29.79;44.00;100300.22;5081650;28;1902;-52
2021/08/01 02:25:57;;;;;;;;;;;;;;;29.29;44.13;100239.22;5098974;28;943;-33
2021/08/01 02:28:23;;;;;;;;;;;;;;;29.77;44.20;100307.75;5099574;28;990;-34
2021/08/01 02:30:48;;;;;;;;;;;;;;;29.75;44.36;100314.41;5099562;28;807;-36
2021/08/01 02:33:14;;;;;;;;;;;;;;;29.77;44.36;100304.19;5081206;28;767;-40
2021/08/01 02:35:39;;;;;;;;;;;;;;;29.75;44.30;100319.81;5081116;28;795;-48
2021/08/01 02:38:04;;;;;;;;;;;;;;;29.80;44.22;100322.72;5099000;28;724;-48
2021/08/01 02:40:33;;;;;;;;;;;;;;;29.74;44.51;100324.44;5099295;28;779;-48
2021/08/01 02:42:59;;;;;;;;;;;;;;;29.73;44.44;100332.78;5064505;28;1905;-40
2021/08/01 02:45:24;;;;;;;;;;;;;;;29.76;44.67;100322.31;5078662;28;744;-38
2021/08/01 02:47:49;;;;;;;;;;;;;;;29.83;44.55;100333.16;5078956;28;824;-42
2021/08/01 02:50:15;;;;;;;;;;;;;;;29.84;44.43;100334.00;5078892;28;813;-41
2021/08/01 02:52:42;;;;;;;;;;;;;;;29.80;44.58;100339.84;5060472;28;864;-40
2021/08/01 02:55:08;;;;;;;;;;;;;;;29.75;44.74;100336.94;5060682;28;1280;-40
2021/08/01 02:57:33;;;;;;;;;;;;;;;29.82;44.65;100340.47;5091598;28;974;-40
2021/08/01 03:00:02;;;;;;;;;;;;;;;29.81;44.59;100343.41;5098772;28;814;-42
2021/08/01 03:02:27;;;;;;;;;;;;;;;29.84;44.54;100348.41;5098774;28;1902;-33
2021/08/01 03:04:53;;;;;;;;;;;;;;;29.76;44.77;100346.72;5080471;28;806;-34
2021/08/01 03:07:18;;;;;;;;;;;;;;;29.72;44.84;100350.91;5080569;28;818;-34
2021/08/01 03:09:43;;;;;;;;;;;;;;;29.80;44.54;100358.81;5080748;28;806;-33
2021/08/01 03:12:09;;;;;;;;;;;;;;;29.78;44.80;100358.19;5096713;28;1456;-44
2021/08/01 03:14:34;;;;;;;;;;;;;;;29.74;44.87;100356.97;5097897;28;1525;-35
2021/08/01 03:16:59;;;;;;;;;;;;;;;29.66;44.99;100346.34;5097754;28;1421;-44
2021/08/01 03:19:25;;;;;;;;;;;;;;;29.56;45.02;100350.25;5098613;28;814;-43
2021/08/01 03:21:50;;;;;;;;;;;;;;;29.48;45.73;100355.88;5086332;28;1352;-43
2021/08/01 03:24:15;;;;;;;;;;;;;;;29.32;45.62;100349.88;5098293;28;1901;-34
2021/08/01 03:26:40;;;;;;;;;;;;;;;29.23;45.68;100347.56;5098085;28;1010;-44
2021/08/01 03:29:06;;;;;;;;;;;;;;;29.22;45.10;100349.44;5098174;28;802;-34
2021/08/01 03:31:31;;;;;;;;;;;;;;;29.01;45.26;100351.28;5097315;28;1514;-36
2021/08/01 03:33:56;;;;;;;;;;;;;;;28.44;46.33;100352.34;5098405;28;771;-35
2021/08/01 03:36:21;;;;;;;;;;;;;;;28.26;46.52;100343.91;5098370;28;795;-36
2021/08/01 03:38:50;;;;;;;;;;;;;;;28.15;47.23;100335.31;5097976;28;815;-39
2021/08/01 03:41:15;;;;;;;;;;;;;;;28.22;47.21;100332.66;5097648;28;994;-37
2021/08/01 03:43:40;;;;;;;;;;;;;;;28.20;47.56;100335.56;5097753;28;1962;-38
2021/08/01 03:46:06;;;;;;;;;;;;;;;28.25;48.01;100332.25;5097927;28;790;-35
2021/08/01 03:48:33;;;;;;;;;;;;;;;28.11;48.55;100326.78;5097859;28;763;-35
2021/08/01 03:50:58;;;;;;;;;;;;;;;28.18;48.77;100328.66;5098227;28;733;-39
2021/08/01 03:53:24;;;;;;;;;;;;;;;28.22;48.79;100324.53;5097378;28;1476;-33
2021/08/01 03:55:49;;;;;;;;;;;;;;;28.24;48.89;100326.00;5095147;28;1437;-40
2021/08/01 03:58:14;;;;;;;;;;;;;;;28.60;48.41;100334.06;5095717;28;1247;-39
2021/08/01 04:00:44;;;;;;;;;;;;;;;28.88;47.80;100354.75;5097674;28;751;-35
2021/08/01 04:03:10;;;;;;;;;;;;;;;28.02;50.42;100360.44;5094209;28;1976;-40
2021/08/01 04:05:37;;;;;;;;;;;;;;;27.09;52.81;100360.28;5095814;28;1317;-37
2021/08/01 04:08:02;;;;;;;;;;;;;;;27.07;52.37;100356.09;5096518;28;1254;-40
2021/08/01 04:10:28;;;;;;;;;;;;;;;27.34;51.52;100356.38;5095981;28;1273;-33
2021/08/01 04:12:53;;;;;;;;;;;;;;;27.88;49.92;100367.59;5097541;28;797;-40
2021/08/01 04:15:18;;;;;;;;;;;;;;;27.98;45.95;100372.66;5097386;28;775;-39
2021/08/01 04:17:43;;;;;;;;;;;;;;;28.16;47.71;100384.84;5097263;28;740;-34
2021/08/01 04:20:09;;;;;;;;;;;;;;;28.22;48.87;100387.59;5097497;28;900;-41
2021/08/01 04:22:34;;;;;;;;;;;;;;;28.06;47.24;100380.59;5081686;28;1902;-40
2021/08/01 04:25:00;;;;;;;;;;;;;;;28.46;46.74;100362.97;5076566;28;791;-41
2021/08/01 04:27:25;;;;;;;;;;;;;;;28.63;46.98;100368.03;5088946;28;940;-41
2021/08/01 04:29:50;;;;;;;;;;;;;;;28.46;47.60;100365.69;5097214;28;831;-40
2021/08/01 04:32:16;;;;;;;;;;;;;;;28.66;46.91;100373.03;5096933;28;779;-43
2021/08/01 04:34:41;;;;;;;;;;;;;;;28.59;47.31;100370.31;5096983;28;847;-43
2021/08/01 04:37:06;;;;;;;;;;;;;;;28.53;46.73;100376.53;5096931;28;790;-34
2021/08/01 04:39:31;;;;;;;;;;;;;;;28.67;46.47;100377.41;5096873;28;722;-35
2021/08/01 04:41:58;;;;;;;;;;;;;;;28.76;46.36;100370.75;5096262;28;913;-41
2021/08/01 04:44:23;;;;;;;;;;;;;;;28.81;47.16;100379.09;5078196;28;1906;-39
2021/08/01 04:46:48;;;;;;;;;;;;;;;28.71;47.12;100381.38;5096472;28;850;-38
2021/08/01 04:49:14;;;;;;;;;;;;;;;28.68;47.74;100366.38;5096984;28;739;-39
2021/08/01 04:51:39;;;;;;;;;;;;;;;28.66;47.62;100379.25;5096734;28;817;-42
2021/08/01 04:54:04;;;;;;;;;;;;;;;28.72;48.19;100374.91;5096715;28;1041;-36
2021/08/01 04:56:30;;;;;;;;;;;;;;;28.87;48.00;100372.06;5096507;28;975;-40
2021/08/01 04:58:55;;;;;;;;;;;;;;;28.93;48.01;100383.91;5096621;28;805;-38
2021/08/01 05:01:20;;;;;;;;;;;;;;;29.01;47.99;100385.66;5096831;28;759;-41
2021/08/01 05:03:46;;;;;;;;;;;;;;;29.01;48.51;100381.06;5096673;28;1913;-42
2021/08/01 05:06:11;;;;;;;;;;;;;;;29.03;48.50;100380.88;5096153;28;783;-42
2021/08/01 05:08:37;;;;;;;;;;;;;;;29.10;48.56;100384.41;5096835;28;739;-36
2021/08/01 05:11:02;;;;;;;;;;;;;;;29.11;48.61;100383.41;5096416;28;1014;-36
2021/08/01 05:13:27;;;;;;;;;;;;;;;29.19;48.30;100380.50;5096204;28;802;-45
2021/08/01 05:15:53;;;;;;;;;;;;;;;29.28;48.18;100391.13;5096541;28;778;-38
2021/08/01 05:18:20;;;;;;;;;;;;;;;29.38;47.80;100388.81;5096827;28;817;-35
2021/08/01 05:20:45;;;;;;;;;;;;;;;29.49;47.42;100378.41;5100558;28;795;-34
2021/08/01 05:23:11;;;;;;;;;;;;;;;29.51;47.47;100385.28;5100662;28;1926;-44
2021/08/01 05:25:36;;;;;;;;;;;;;;;29.60;47.37;100382.38;5100479;28;778;-42
2021/08/01 05:28:01;;;;;;;;;;;;;;;29.57;45.03;100380.91;5100082;28;951;-38
2021/08/01 05:30:27;;;;;;;;;;;;;;;29.54;44.47;100394.88;5100520;28;786;-40
2021/08/01 05:32:52;;;;;;;;;;;;;;;29.49;45.26;100403.66;5100652;28;858;-35
2021/08/01 05:35:17;;;;;;;;;;;;;;;29.47;45.49;100403.00;5100586;28;914;-44
2021/08/01 05:37:42;;;;;;;;;;;;;;;29.41;45.68;100403.84;5100352;28;874;-42
2021/08/01 05:40:10;;;;;;;;;;;;;;;29.46;45.60;100396.75;5100028;28;763;-33
2021/08/01 05:42:35;;;;;;;;;;;;;;;29.63;44.95;100406.38;5099731;28;1901;-50
2021/08/01 05:45:01;;;;;;;;;;;;;;;29.72;44.66;100401.56;5100296;28;871;-52
2021/08/01 05:47:26;;;;;;;;;;;;;;;29.82;44.30;100399.28;5099986;28;873;-39
2021/08/01 05:49:51;;;;;;;;;;;;;;;29.66;44.51;100395.94;5100600;28;834;-45
2021/08/01 05:52:16;;;;;;;;;;;;;;;29.68;44.67;100403.84;5099625;28;823;-41
2021/08/01 05:54:42;;;;;;;;;;;;;;;29.80;44.67;100404.06;5100369;28;1047;-41
2021/08/01 05:57:07;;;;;;;;;;;;;;;29.80;44.49;100399.50;5099794;28;981;-33
2021/08/01 05:59:32;;;;;;;;;;;;;;;29.80;44.54;100393.22;5100036;28;851;-33
2021/08/01 06:01:58;;;;;;;;;;;;;;;29.74;44.46;100402.19;5100069;28;724;-34
2021/08/01 06:04:24;;;;;;;;;;;;;;;29.84;44.29;100401.78;5099308;28;1975;-41
2021/08/01 06:06:52;;;;;;;;;;;;;;;29.86;44.26;100405.13;5099286;28;803;-33
2021/08/01 06:09:18;;;;;;;;;;;;;;;29.75;44.42;100409.28;5099496;28;809;-40
2021/08/01 06:11:43;;;;;;;;;;;;;;;29.79;44.26;100403.25;5098995;28;998;-37
2021/08/01 06:14:08;;;;;;;;;;;;;;;29.84;44.09;100413.47;5099403;28;814;-36
2021/08/01 06:16:34;;;;;;;;;;;;;;;29.89;43.91;100410.97;5099343;28;802;-36
2021/08/01 06:19:00;;;;;;;;;;;;;;;29.83;43.96;100406.34;5098941;28;787;-40
2021/08/01 06:21:27;;;;;;;;;;;;;;;29.87;44.08;100404.91;5099221;28;739;-42
2021/08/01 06:23:52;;;;;;;;;;;;;;;29.90;43.74;100409.06;5099098;28;1902;-34
2021/08/01 06:26:18;;;;;;;;;;;;;;;29.97;43.54;100404.47;5098805;28;1014;-34
2021/08/01 06:28:43;;;;;;;;;;;;;;;29.90;43.59;100414.50;5098673;28;776;-37
2021/08/01 06:31:09;;;;;;;;;;;;;;;30.01;43.56;100407.59;5097915;28;756;-41
2021/08/01 06:33:34;;;;;;;;;;;;;;;30.01;43.58;100408.41;5099431;28;775;-39
2021/08/01 06:36:00;;;;;;;;;;;;;;;30.01;43.33;100418.44;5098751;28;779;-41
2021/08/01 06:38:25;;;;;;;;;;;;;;;30.06;43.11;100415.94;5098701;28;807;-41
2021/08/01 06:40:50;;;;;;;;;;;;;;;30.06;43.39;100416.75;5098874;28;783;-34
2021/08/01 06:43:16;;;;;;;;;;;;;;;30.03;43.40;100416.38;5098208;28;1909;-33
2021/08/01 06:45:41;;;;;;;;;;;;;;;30.01;43.48;100416.56;5099238;28;827;-41
2021/08/01 06:48:07;;;;;;;;;;;;;;;30.10;43.23;100419.03;5098968;28;783;-40
2021/08/01 06:50:35;;;;;;;;;;;;;;;30.05;43.32;100411.53;5098183;28;825;-40
2021/08/01 06:53:00;;;;;;;;;;;;;;;30.05;43.36;100420.53;5099014;28;846;-41
2021/08/01 06:55:26;;;;;;;;;;;;;;;30.03;43.49;100422.59;5098354;28;1276;-43
2021/08/01 06:57:51;;;;;;;;;;;;;;;30.02;43.24;100426.38;5097906;28;1005;-44
2021/08/01 07:00:20;;;;;;;;;;;;;;;30.05;43.37;100430.53;5098671;28;770;-33
2021/08/01 07:02:50;;;;;;;;;;;;;;;30.02;43.12;100423.66;5098028;28;1933;-43
2021/08/01 07:05:15;;;;;;;;;;;;;;;30.06;42.87;100422.19;5098462;28;751;-41
2021/08/01 07:07:41;;;;;;;;;;;;;;;30.01;43.17;100421.16;5098280;28;810;-40
2021/08/01 07:10:06;;;;;;;;;;;;;;;29.98;43.14;100422.41;5097765;28;866;-34
2021/08/01 07:12:31;;;;;;;;;;;;;;;29.98;42.95;100419.69;5097913;28;1006;-41
2021/08/01 07:14:57;;;;;;;;;;;;;;;30.01;42.99;100415.75;5098258;28;799;-34
2021/08/01 07:17:22;;;;;;;;;;;;;;;30.01;42.88;100410.31;5098099;28;840;-42
2021/08/01 07:19:48;;;;;;;;;;;;;;;29.99;43.18;100421.38;5097699;28;1139;-42
2021/08/01 07:22:13;;;;;;;;;;;;;;;29.99;43.23;100417.81;5097781;28;738;-34
2021/08/01 07:24:38;;;;;;;;;;;;;;;30.03;42.89;100413.66;5097945;28;1898;-39
2021/08/01 07:27:04;;;;;;;;;;;;;;;30.04;42.87;100412.59;5097565;28;958;-39
2021/08/01 07:29:29;;;;;;;;;;;;;;;30.02;43.09;100417.41;5097902;28;898;-39
2021/08/01 07:31:57;;;;;;;;;;;;;;;30.05;42.95;100415.09;5097823;28;759;-36
2021/08/01 07:34:22;;;;;;;;;;;;;;;30.08;43.00;100416.53;5097369;28;1519;-40
2021/08/01 07:36:47;;;;;;;;;;;;;;;30.09;42.88;100414.69;5097671;28;525;-39
2021/08/01 07:39:12;;;;;;;;;;;;;;;30.08;42.91;100418.44;5097728;28;799;-32
2021/08/01 07:41:38;;;;;;;;;;;;;;;30.08;42.96;100424.69;5096840;28;923;-34
2021/08/01 07:44:03;;;;;;;;;;;;;;;30.09;42.94;100415.53;5097139;28;1972;-40
2021/08/01 07:46:28;;;;;;;;;;;;;;;30.09;42.59;100418.22;5097456;28;744;-39
2021/08/01 07:48:54;;;;;;;;;;;;;;;30.15;42.60;100411.09;5097291;28;870;-35
2021/08/01 07:51:19;;;;;;;;;;;;;;;30.08;42.65;100416.53;5097586;28;751;-39
2021/08/01 07:53:44;;;;;;;;;;;;;;;30.13;42.55;100414.03;5097376;28;1147;-42
2021/08/01 07:56:10;;;;;;;;;;;;;;;30.15;42.46;100408.41;5097113;28;974;-33
2021/08/01 07:58:35;;;;;;;;;;;;;;;30.10;42.32;100414.47;5097057;28;829;-40
2021/08/01 08:01:00;;;;;;;;;;;;;;;30.14;42.25;100418.44;5096508;28;795;-40
2021/08/01 08:03:25;;;;;;;;;;;;;;;29.92;37.71;100413.25;5097084;28;1906;-39
2021/08/01 08:05:51;;;;;;;;;;;;;;;29.90;39.16;100412.63;5096840;28;854;-43
2021/08/01 08:08:17;;;;;;;;;;;;;;;30.00;40.83;100417.59;5096927;28;799;-33
2021/08/01 08:10:42;;;;;;;;;;;;;;;30.08;40.98;100419.25;5097049;28;763;-36
2021/08/01 08:13:07;;;;;;;;;;;;;;;30.08;41.08;100424.69;5096637;28;974;-45
2021/08/01 08:15:33;;;;;;;;;;;;;;;30.15;40.77;100413.81;5097332;28;820;-42
2021/08/01 08:17:58;;;;;;;;;;;;;;;30.20;40.85;100414.06;5097113;28;732;-33
2021/08/01 08:20:23;;;;;;;;;;;;;;;30.21;40.72;100414.91;5096713;28;770;-43
2021/08/01 08:22:49;;;;;;;;;;;;;;;30.21;40.64;100420.31;5096595;28;1968;-38
2021/08/01 08:25:15;;;;;;;;;;;;;;;30.27;40.45;100417.59;5097261;28;771;-44
2021/08/01 08:27:40;;;;;;;;;;;;;;;30.26;40.43;100415.09;5095816;28;923;-40
2021/08/01 08:30:06;;;;;;;;;;;;;;;30.24;40.98;100414.47;5096464;28;838;-33
2021/08/01 08:32:33;;;;;;;;;;;;;;;30.27;40.75;100420.31;5096932;28;775;-42
2021/08/01 08:34:58;;;;;;;;;;;;;;;30.33;40.39;100415.88;5097237;28;835;-34
2021/08/01 08:37:23;;;;;;;;;;;;;;;30.28;40.65;100415.72;5096848;28;890;-41
2021/08/01 08:39:48;;;;;;;;;;;;;;;30.01;35.81;100413.03;5096462;28;853;-42
2021/08/01 08:42:14;;;;;;;;;;;;;;;29.81;36.40;100411.19;5096149;28;926;-45
2021/08/01 08:44:40;;;;;;;;;;;;;;;29.64;36.86;100408.88;5096920;28;1909;-41
2021/08/01 08:47:05;;;;;;;;;;;;;;;29.57;37.14;100411.56;5096748;28;811;-43
2021/08/01 08:49:31;;;;;;;;;;;;;;;29.48;37.10;100409.28;5077950;28;971;-40
2021/08/01 08:51:57;;;;;;;;;;;;;;;29.30;37.41;100405.28;5096407;28;795;-41
2021/08/01 08:54:31;;;;;;;;;;;;;;;29.27;37.51;100405.69;5084907;28;1038;-35
2021/08/01 08:56:56;;;;;;;;;;;;;;;29.01;37.68;100401.91;5108234;28;1009;-41
2021/08/01 08:59:22;;;;;;;;;;;;;;;29.20;37.77;100401.09;5096799;28;735;-32
2021/08/01 09:01:47;;;;;;;;;;;;;;;29.07;37.55;100396.50;5078548;28;861;-38
2021/08/01 09:04:12;;;;;;;;;;;;;;;29.47;37.29;100389.47;5096040;28;1917;-42
2021/08/01 09:06:38;;;;;;;;;;;;;;;29.75;36.31;100388.44;5096226;28;874;-51
2021/08/01 09:09:03;;;;;;;;;;;;;;;29.60;36.58;100399.50;5078343;28;795;-33
2021/08/01 09:11:28;;;;;;;;;;;;;;;29.27;37.08;100386.72;5082007;28;1384;-34
2021/08/01 09:13:54;;;;;;;;;;;;;;;29.04;38.16;100385.25;5117163;28;801;-32
2021/08/01 09:16:21;;;;;;;;;;;;;;;28.65;38.65;100390.28;5116718;28;731;-43
2021/08/01 09:18:46;;;;;;;;;;;;;;;28.48;38.79;100380.66;5116463;28;902;-44
2021/08/01 09:21:27;;;;;;;;;;;;;;;28.60;38.88;100388.19;5116354;28;763;-43
2021/08/01 09:23:53;;;;;;;;;;;;;;;28.78;38.26;100387.63;5116781;28;1909;-44
2021/08/01 09:26:18;;;;;;;;;;;;;;;28.75;38.27;100377.22;5115745;28;958;-42
2021/08/01 09:28:43;;;;;;;;;;;;;;;28.43;39.21;100375.00;5117099;28;806;-42
2021/08/01 09:31:08;;;;;;;;;;;;;;;28.81;38.60;100372.88;5097470;28;1449;-35
2021/08/01 09:33:35;;;;;;;;;;;;;;;28.60;41.16;100385.50;5098041;28;1138;-42
2021/08/01 09:36:04;;;;;;;;;;;;;;;26.01;45.19;100377.78;5116656;28;813;-42
2021/08/01 09:38:32;;;;;;;;;;;;;;;25.91;45.20;100384.28;5116435;28;762;-41
2021/08/01 09:41:02;;;;;;;;;;;;;;;26.84;45.41;100384.88;5115958;28;851;-39
2021/08/01 09:43:28;;;;;;;;;;;;;;;27.80;41.72;100378.56;5116267;28;1969;-39
2021/08/01 09:45:58;;;;;;;;;;;;;;;26.03;45.83;100376.59;5097968;28;850;-33
2021/08/01 09:48:24;;;;;;;;;;;;;;;26.73;46.59;100375.44;5116501;28;825;-45
2021/08/01 09:50:57;;;;;;;;;;;;;;;27.75;42.26;100366.50;5116473;28;849;-40
2021/08/01 09:53:22;;;;;;;;;;;;;;;25.64;47.84;100372.25;5116247;28;1451;-42
2021/08/01 09:55:47;;;;;;;;;;;;;;;26.13;49.40;100375.47;5115504;28;1234;-42
2021/08/01 09:58:13;;;;;;;;;;;;;;;27.70;43.68;100368.94;5116129;28;1009;-42
2021/08/01 10:00:57;;;;;;;;;;;;;;;25.55;48.54;100371.44;5097360;28;1052;-40
2021/08/01 10:03:35;;;;;;;;;;;;;;;25.36;50.87;100375.50;5116308;28;1913;-42
2021/08/01 10:06:07;;;;;;;;;;;;;;;27.37;45.20;100370.31;5117304;28;783;-42
2021/08/01 10:08:37;;;;;;;;;;;;;;;25.74;48.04;100370.13;5119436;28;870;-38
2021/08/01 10:11:21;;;;;;;;;;;;;;;26.16;50.11;100362.44;5118812;28;958;-40
2021/08/01 10:13:47;;;;;;;;;;;;;;;27.48;44.19;100360.00;5119440;28;882;-40
2021/08/01 10:16:12;;;;;;;;;;;;;;;25.03;49.44;100357.69;5120255;28;807;-42
2021/08/01 10:18:47;;;;;;;;;;;;;;;26.64;46.03;100358.50;5119529;28;812;-42
2021/08/01 10:21:18;;;;;;;;;;;;;;;26.71;45.85;100360.47;5119250;28;982;-42
2021/08/01 10:23:44;;;;;;;;;;;;;;;25.23;50.08;100351.84;5101359;28;1906;-42
2021/08/01 10:26:09;;;;;;;;;;;;;;;27.04;44.66;100360.03;5119191;28;1010;-41
2021/08/01 10:28:35;;;;;;;;;;;;;;;25.72;48.05;100364.09;5119261;28;812;-42
2021/08/01 10:31:03;;;;;;;;;;;;;;;26.22;49.10;100357.34;5119002;28;1355;-42
2021/08/01 10:33:32;;;;;;;;;;;;;;;27.27;44.18;100353.59;5100921;28;830;-41
2021/08/01 10:35:59;;;;;;;;;;;;;;;25.36;48.85;100354.75;5100615;28;954;-43
2021/08/01 10:38:24;;;;;;;;;;;;;;;26.77;45.70;100352.47;5100424;28;863;-39
2021/08/01 10:40:52;;;;;;;;;;;;;;;26.60;46.54;100353.69;5100249;28;883;-40
2021/08/01 10:43:18;;;;;;;;;;;;;;;25.56;48.42;100355.09;5101178;28;1970;-42
2021/08/01 10:45:47;;;;;;;;;;;;;;;26.99;44.94;100348.94;5100923;28;767;-37
2021/08/01 10:48:13;;;;;;;;;;;;;;;25.80;47.92;100345.16;5100245;28;1426;-38
2021/08/01 10:50:38;;;;;;;;;;;;;;;26.47;48.10;100349.81;5119223;28;775;-34
2021/08/01 10:53:19;;;;;;;;;;;;;;;27.32;43.92;100344.91;5101117;28;759;-45
2021/08/01 10:55:44;;;;;;;;;;;;;;;26.46;46.30;100341.94;5099580;28;1102;-33
2021/08/01 10:58:10;;;;;;;;;;;;;;;26.92;46.16;100339.94;5098573;28;1006;-37
2021/08/01 11:00:54;;;;;;;;;;;;;;;27.86;43.97;100338.06;5098413;28;844;-37
2021/08/01 11:03:20;;;;;;;;;;;;;;;24.96;50.65;100343.31;5098165;28;1921;-36
2021/08/01 11:05:45;;;;;;;;;;;;;;;26.81;46.88;100352.91;5098308;28;808;-36
2021/08/01 11:08:10;;;;;;;;;;;;;;;26.75;47.05;100340.16;5098513;28;826;-40
2021/08/01 11:10:36;;;;;;;;;;;;;;;25.25;49.81;100342.59;5098485;28;720;-37
2021/08/01 11:13:02;;;;;;;;;;;;;;;26.61;47.91;100337.31;5097646;28;1025;-32
2021/08/01 11:15:44;;;;;;;;;;;;;;;27.04;46.37;100334.91;5080597;28;821;-40
2021/08/01 11:18:09;;;;;;;;;;;;;;;25.44;49.96;100327.78;5097977;28;732;-37
2021/08/01 11:20:34;;;;;;;;;;;;;;;26.94;47.39;100329.78;5098239;28;831;-37
2021/08/01 11:23:01;;;;;;;;;;;;;;;26.66;47.72;100336.75;5097488;28;1905;-37
2021/08/01 11:25:32;;;;;;;;;;;;;;;25.25;50.31;100336.34;5098324;28;787;-37
2021/08/01 11:28:10;;;;;;;;;;;;;;;26.85;46.31;100332.59;5097035;28;970;-38
2021/08/01 11:30:51;;;;;;;;;;;;;;;25.47;49.39;100337.34;5097934;28;732;-35
2021/08/01 11:33:28;;;;;;;;;;;;;;;26.47;48.08;100340.88;5097449;28;850;-35
2021/08/01 11:36:12;;;;;;;;;;;;;;;26.90;46.75;100334.72;5098013;28;826;-39
2021/08/01 11:38:56;;;;;;;;;;;;;;;25.00;52.04;100334.69;5097518;28;754;-39
2021/08/01 11:41:27;;;;;;;;;;;;;;;26.96;45.68;100331.25;5097028;28;895;-41
2021/08/01 11:43:59;;;;;;;;;;;;;;;25.27;49.83;100327.09;5097524;28;1976;-43
2021/08/01 11:46:24;;;;;;;;;;;;;;;26.11;49.46;100335.22;5097360;28;566;-42
2021/08/01 11:49:15;;;;;;;;;;;;;;;27.18;45.49;100327.75;5097419;28;848;-40
2021/08/01 11:51:41;;;;;;;;;;;;;;;25.43;49.58;100317.19;5093145;28;1651;-42
2021/08/01 11:54:07;;;;;;;;;;;;;;;26.88;46.39;100320.59;5097195;28;1031;-42
2021/08/01 11:56:32;;;;;;;;;;;;;;;26.25;48.18;100327.31;5097321;28;974;-41
2021/08/01 11:58:57;;;;;;;;;;;;;;;25.74;50.54;100310.84;5097311;28;779;-44
2021/08/01 12:01:23;;;;;;;;;;;;;;;27.06;46.06;100313.94;5079202;28;811;-37
2021/08/01 12:03:48;;;;;;;;;;;;;;;25.55;48.94;100315.75;5096949;28;1913;-37
2021/08/01 12:06:30;;;;;;;;;;;;;;;26.27;49.14;100318.03;5097109;28;787;-44
2021/08/01 12:08:55;;;;;;;;;;;;;;;27.40;45.82;100312.34;5097220;28;771;-36
2021/08/01 12:11:22;;;;;;;;;;;;;;;25.92;48.12;100315.06;5096720;28;942;-38
2021/08/01 12:14:06;;;;;;;;;;;;;;;26.59;47.54;100314.25;5096576;28;922;-39
2021/08/01 12:16:31;;;;;;;;;;;;;;;27.22;45.71;100308.28;5096941;28;776;-43
2021/08/01 12:19:13;;;;;;;;;;;;;;;26.05;47.69;100311.72;5078031;28;1440;-43
2021/08/01 12:21:38;;;;;;;;;;;;;;;27.23;45.67;100307.25;5096584;28;887;-42
2021/08/01 12:24:04;;;;;;;;;;;;;;;25.90;47.98;100309.00;5096618;28;1906;-40
2021/08/01 12:26:34;;;;;;;;;;;;;;;26.53;48.68;100316.69;5096774;28;1002;-39
2021/08/01 12:28:59;;;;;;;;;;;;;;;27.67;44.27;100322.53;5078107;28;1288;-44
2021/08/01 12:31:28;;;;;;;;;;;;;;;26.08;47.83;100318.56;5096684;28;850;-33
2021/08/01 12:33:54;;;;;;;;;;;;;;;26.69;47.52;100312.09;5096439;28;831;-48
2021/08/01 12:36:25;;;;;;;;;;;;;;;27.50;46.03;100315.56;5079115;28;787;-40
2021/08/01 12:38:51;;;;;;;;;;;;;;;25.96;48.48;100315.53;5078897;28;739;-35
2021/08/01 12:41:20;;;;;;;;;;;;;;;26.42;49.47;100311.78;5096492;28;955;-41
2021/08/01 12:43:45;;;;;;;;;;;;;;;27.37;44.79;100300.09;5095913;28;1976;-42
2021/08/01 12:46:17;;;;;;;;;;;;;;;25.46;49.11;100308.72;5096868;28;927;-40
2021/08/01 12:48:42;;;;;;;;;;;;;;;26.98;46.44;100307.59;5096168;28;845;-34
2021/08/01 12:51:08;;;;;;;;;;;;;;;27.17;45.90;100308.03;5096880;28;767;-34